Terminal Aerodrome Forecast
Issued by NWS Dodge City, KS

Home | Current Version | Previous Version | Text Only | Print | Product List | Glossary On
Versions: 1 2 3 4 5 6 7 8 9 10 11 12 13 14 15 16 17 18 19 20 21 22 23 24 25 26 27 28 29 30 31 32 33 34 35 36 37
000
FTUS43 KDDC 121120
TAFDDC
TAF
KDDC 121120Z 1212/1312 01020G24KT 2SM -RA BR BKN006 OVC010
      TEMPO 1212/1214 6SM BR SCT006 OVC010
     FM121400 01013G20KT 6SM BR BKN010
     FM121800 01012G20KT P6SM OVC007
     FM122100 01012KT P6SM BKN025=

USA.gov is the U.S. government's official web portal to all federal, state and local government web resources and services.